createdAt,value
2023-03-30T00:00:18.610Z,14.40
2023-03-30T00:02:49.496Z,14.05
2023-03-30T00:05:19.120Z,19.58
2023-03-30T00:07:47.057Z,21.70
2023-03-30T00:10:17.762Z,19.80
2023-03-30T00:12:47.178Z,10.40
2023-03-30T00:15:18.388Z,15.65
2023-03-30T00:17:46.678Z,17.13
2023-03-30T00:20:17.144Z,15.02
2023-03-30T00:22:46.898Z,12.68
2023-03-30T00:25:17.257Z,20.52
2023-03-30T00:27:45.655Z,13.27
2023-03-30T00:30:18.138Z,13.85
2023-03-30T00:32:47.529Z,17.73
2023-03-30T00:35:16.023Z,14.85
2023-03-30T00:37:45.627Z,12.30
2023-03-30T00:40:17.638Z,16.77
2023-03-30T00:42:45.782Z,18.25
2023-03-30T00:45:22.328Z,17.98
2023-03-30T00:47:57.703Z,11.30
2023-03-30T00:50:30.537Z,15.38
2023-03-30T00:53:00.949Z,14.23
2023-03-30T00:55:31.858Z,24.40
2023-03-30T00:58:00.680Z,20.05
2023-03-30T01:00:29.960Z,13.05
2023-03-30T01:03:06.260Z,14.38
2023-03-30T01:05:35.336Z,17.98
2023-03-30T01:08:07.412Z,13.20
2023-03-30T01:10:35.777Z,13.57
2023-03-30T01:13:05.266Z,16.00
2023-03-30T01:15:40.663Z,18.25
2023-03-30T01:18:20.375Z,15.73
2023-03-30T01:21:08.565Z,17.13
2023-03-30T01:24:12.087Z,12.85
2023-03-30T01:26:50.376Z,16.75
2023-03-30T01:29:29.788Z,15.63
2023-03-30T01:32:33.445Z,17.92
2023-03-30T01:35:21.833Z,14.38
2023-03-30T01:38:09.369Z,18.25
2023-03-30T01:40:43.816Z,15.20
2023-03-30T01:43:18.189Z,20.00
2023-03-30T01:45:50.529Z,23.83
2023-03-30T01:48:26.097Z,28.08
2023-03-30T01:50:56.443Z,19.60
2023-03-30T01:53:32.276Z,14.77
2023-03-30T01:56:05.920Z,19.77
2023-03-30T01:58:37.956Z,27.77
2023-03-30T02:01:07.963Z,18.75
2023-03-30T02:03:39.952Z,17.48
2023-03-30T02:06:11.647Z,20.08
2023-03-30T02:08:41.050Z,18.20
2023-03-30T02:11:11.413Z,18.20
2023-03-30T02:13:41.400Z,15.90
2023-03-30T02:16:14.003Z,17.65
2023-03-30T02:18:42.357Z,13.90
2023-03-30T02:21:10.275Z,19.60
2023-03-30T02:23:42.040Z,13.82
2023-03-30T02:26:12.042Z,21.73
2023-03-30T02:28:40.413Z,16.77
2023-03-30T02:31:13.903Z,13.73
2023-03-30T02:33:59.018Z,15.43
2023-03-30T02:36:41.922Z,13.38
2023-03-30T02:39:23.041Z,18.70
2023-03-30T02:42:14.036Z,21.05
2023-03-30T02:44:47.244Z,19.50
2023-03-30T02:47:21.882Z,19.25
2023-03-30T02:49:57.548Z,22.35
2023-03-30T02:52:40.330Z,14.38
2023-03-30T02:55:15.445Z,23.52
2023-03-30T02:57:56.959Z,26.23
2023-03-30T03:00:29.332Z,18.35
2023-03-30T03:03:00.614Z,14.00
2023-03-30T03:05:29.692Z,15.02
2023-03-30T03:07:57.693Z,11.95
2023-03-30T03:10:25.605Z,23.85
2023-03-30T03:12:54.838Z,18.17
2023-03-30T03:15:23.606Z,19.85
2023-03-30T03:17:51.581Z,15.18
2023-03-30T03:20:20.059Z,25.20
2023-03-30T03:22:47.919Z,19.40
2023-03-30T03:25:16.500Z,21.83
2023-03-30T03:27:44.313Z,23.23
2023-03-30T03:30:14.455Z,18.65
2023-03-30T03:32:42.318Z,16.15
2023-03-30T03:35:10.912Z,20.38
2023-03-30T03:37:38.816Z,28.00
2023-03-30T03:40:08.186Z,22.90
2023-03-30T03:42:36.036Z,16.90
2023-03-30T03:45:04.288Z,15.02
2023-03-30T03:47:34.522Z,19.10
2023-03-30T03:50:04.133Z,27.67
2023-03-30T03:52:32.095Z,24.13
2023-03-30T03:54:59.932Z,21.98
2023-03-30T03:57:27.884Z,14.15
2023-03-30T03:59:57.998Z,14.90
2023-03-30T04:02:26.214Z,17.00
2023-03-30T04:04:55.772Z,14.65
2023-03-30T04:07:25.412Z,29.15
2023-03-30T04:09:53.248Z,22.77
2023-03-30T04:12:21.183Z,22.80
2023-03-30T04:14:49.069Z,23.13
2023-03-30T04:17:17.028Z,19.48
2023-03-30T04:19:45.769Z,23.65
2023-03-30T04:22:14.977Z,25.90
2023-03-30T04:24:44.633Z,21.63
2023-03-30T04:27:14.368Z,23.15
2023-03-30T04:29:44.606Z,23.15
2023-03-30T04:32:12.678Z,26.65
2023-03-30T04:34:42.640Z,26.33
2023-03-30T04:37:11.161Z,17.33
2023-03-30T04:39:41.423Z,23.73
2023-03-30T04:42:14.118Z,15.25
2023-03-30T04:44:41.981Z,25.23
2023-03-30T04:47:09.826Z,20.90
2023-03-30T04:49:37.668Z,21.10
2023-03-30T04:52:05.842Z,23.35
2023-03-30T04:54:33.762Z,23.10
2023-03-30T04:57:03.025Z,26.23
2023-03-30T04:59:30.978Z,22.15
2023-03-30T05:01:59.068Z,21.92
2023-03-30T05:04:27.133Z,16.60
2023-03-30T05:06:55.372Z,23.88
2023-03-30T05:09:23.318Z,21.92
2023-03-30T05:11:51.430Z,18.40
2023-03-30T05:14:20.988Z,23.42
2023-03-30T05:16:49.141Z,20.48
2023-03-30T05:19:17.239Z,17.17
2023-03-30T05:21:45.493Z,21.13
2023-03-30T05:24:13.772Z,17.38
2023-03-30T05:26:41.836Z,22.98
2023-03-30T05:29:09.993Z,23.38
2023-03-30T05:31:39.739Z,21.80
2023-03-30T05:34:07.692Z,16.95
2023-03-30T05:36:36.229Z,21.95
2023-03-30T05:39:05.108Z,24.55
2023-03-30T05:41:33.018Z,20.83
2023-03-30T05:44:00.894Z,26.15
2023-03-30T05:46:28.874Z,25.90
2023-03-30T05:48:58.077Z,30.40
2023-03-30T05:51:26.409Z,26.45
2023-03-30T05:53:54.263Z,18.17
2023-03-30T05:56:23.560Z,20.42
2023-03-30T05:58:51.838Z,16.77
2023-03-30T06:01:20.864Z,25.50
2023-03-30T06:03:48.933Z,24.55
2023-03-30T06:06:18.216Z,23.70
2023-03-30T06:08:46.507Z,16.73
2023-03-30T06:11:14.661Z,20.40
2023-03-30T06:13:42.781Z,28.40
2023-03-30T06:16:10.900Z,17.15
2023-03-30T06:18:38.845Z,18.92
2023-03-30T06:21:08.250Z,23.85
2023-03-30T06:23:37.907Z,18.23
2023-03-30T06:26:07.441Z,17.50
2023-03-30T06:28:35.330Z,19.67
2023-03-30T06:31:09.115Z,19.90
2023-03-30T06:33:37.867Z,22.67
2023-03-30T06:36:12.198Z,24.02
2023-03-30T06:38:43.024Z,14.07
2023-03-30T06:41:12.712Z,26.90
2023-03-30T06:43:41.225Z,20.02
2023-03-30T06:46:10.079Z,20.58
2023-03-30T06:48:37.930Z,17.45
2023-03-30T06:51:06.662Z,18.48
2023-03-30T06:53:34.882Z,20.30
2023-03-30T06:56:04.160Z,15.93
2023-03-30T06:58:32.411Z,14.88
2023-03-30T07:01:00.289Z,20.77
2023-03-30T07:03:29.891Z,24.52
2023-03-30T07:05:58.437Z,21.90
2023-03-30T07:08:26.384Z,26.77
2023-03-30T07:10:54.229Z,28.85
2023-03-30T07:13:23.582Z,25.40
2023-03-30T07:15:52.241Z,19.38
2023-03-30T07:18:20.147Z,25.10
2023-03-30T07:20:48.083Z,22.92
2023-03-30T07:23:16.594Z,21.70
2023-03-30T07:25:45.706Z,21.45
2023-03-30T07:28:13.985Z,29.23
2023-03-30T07:30:43.228Z,20.27
2023-03-30T07:33:11.452Z,23.58
2023-03-30T07:35:44.949Z,26.13
2023-03-30T07:38:13.061Z,24.10
2023-03-30T07:40:41.541Z,19.33
2023-03-30T07:43:09.448Z,19.83
2023-03-30T07:45:37.320Z,27.92
2023-03-30T07:48:06.976Z,27.08
2023-03-30T07:50:34.965Z,20.95
2023-03-30T07:53:03.320Z,28.08
2023-03-30T07:55:32.156Z,20.67
2023-03-30T07:58:00.009Z,27.05
2023-03-30T08:00:27.913Z,22.52
2023-03-30T08:02:55.833Z,16.55
2023-03-30T08:05:25.120Z,21.60
2023-03-30T08:07:52.950Z,16.75
2023-03-30T08:10:21.019Z,19.42
2023-03-30T08:12:48.903Z,20.83
2023-03-30T08:15:16.881Z,27.52
2023-03-30T08:17:44.838Z,27.23
2023-03-30T08:20:13.044Z,23.95
2023-03-30T08:22:42.322Z,26.30
2023-03-30T08:25:10.803Z,18.33
2023-03-30T08:27:38.805Z,13.95
2023-03-30T08:30:07.908Z,14.82
2023-03-30T08:32:35.821Z,17.55
2023-03-30T08:35:03.733Z,6.75
2023-03-30T08:37:31.610Z,7.93
2023-03-30T08:40:00.815Z,12.95
2023-03-30T08:42:47.407Z,8.45
2023-03-30T08:45:15.706Z,8.00
2023-03-30T08:47:46.052Z,11.65
2023-03-30T08:50:19.094Z,6.28
2023-03-30T08:52:47.854Z,9.02
2023-03-30T08:55:25.255Z,12.15
2023-03-30T08:58:00.197Z,12.80
2023-03-30T09:00:39.575Z,7.47
2023-03-30T09:03:18.365Z,7.70
2023-03-30T09:05:51.643Z,12.05
2023-03-30T09:08:22.714Z,9.30
2023-03-30T09:10:57.414Z,6.47
2023-03-30T09:13:29.631Z,5.93
2023-03-30T09:16:04.169Z,6.32
2023-03-30T09:18:34.689Z,6.68
2023-03-30T09:21:06.076Z,6.68
2023-03-30T09:23:35.923Z,5.32
2023-03-30T09:26:17.765Z,8.20
2023-03-30T09:28:53.388Z,5.13
2023-03-30T09:31:28.918Z,7.32
2023-03-30T09:34:05.008Z,6.32
2023-03-30T09:39:11.154Z,12.23
2023-03-30T09:42:05.789Z,6.32
2023-03-30T09:44:38.058Z,9.32
2023-03-30T09:47:20.328Z,9.30
2023-03-30T09:49:48.192Z,5.50
2023-03-30T09:52:22.595Z,7.72
2023-03-30T09:54:50.586Z,5.78
2023-03-30T09:57:29.092Z,7.97
2023-03-30T09:59:57.994Z,5.15
2023-03-30T10:02:28.969Z,7.28
2023-03-30T10:05:01.661Z,8.82
2023-03-30T10:07:32.883Z,6.82
2023-03-30T10:10:02.944Z,7.35
2023-03-30T10:12:32.324Z,7.03
2023-03-30T10:15:04.159Z,9.48
2023-03-30T10:17:32.567Z,5.82
2023-03-30T10:20:25.867Z,4.90
2023-03-30T10:22:55.353Z,8.13
2023-03-30T10:25:24.943Z,7.88
2023-03-30T10:27:57.383Z,5.28
2023-03-30T10:30:28.480Z,8.68
2023-03-30T10:32:59.262Z,7.00
2023-03-30T10:35:33.944Z,6.35
2023-03-30T10:38:03.262Z,9.57
2023-03-30T10:40:36.695Z,8.00
2023-03-30T10:43:13.578Z,9.48
2023-03-30T10:45:45.813Z,9.07
2023-03-30T10:48:38.408Z,12.75
2023-03-30T10:51:15.230Z,10.55
2023-03-30T10:53:51.801Z,12.77
2023-03-30T10:56:28.441Z,8.82
2023-03-30T10:59:17.949Z,11.57
2023-03-30T11:01:58.311Z,8.75
2023-03-30T11:04:34.172Z,8.98
2023-03-30T11:07:03.613Z,11.73
2023-03-30T11:09:35.296Z,10.75
2023-03-30T11:12:06.445Z,12.68
2023-03-30T11:14:42.445Z,16.60
2023-03-30T11:17:17.727Z,12.02
2023-03-30T11:19:50.785Z,15.98
2023-03-30T11:22:28.126Z,10.52
2023-03-30T11:24:56.856Z,18.17
2023-03-30T11:27:30.698Z,7.65
2023-03-30T11:30:04.560Z,13.43
2023-03-30T11:32:38.908Z,7.72
2023-03-30T11:35:13.708Z,9.82
2023-03-30T11:37:47.250Z,12.65
2023-03-30T11:40:18.811Z,14.23
2023-03-30T11:42:48.411Z,16.08
2023-03-30T11:45:36.673Z,11.43
2023-03-30T11:48:20.679Z,18.83
2023-03-30T11:51:08.059Z,13.48
2023-03-30T11:53:46.089Z,8.73
2023-03-30T11:56:18.714Z,12.13
2023-03-30T11:58:50.166Z,10.38
2023-03-30T12:01:31.341Z,10.32
2023-03-30T12:04:05.439Z,11.65
2023-03-30T12:06:35.132Z,13.95
2023-03-30T12:09:28.893Z,10.35
2023-03-30T12:12:04.484Z,15.07
2023-03-30T12:14:44.529Z,15.70
2023-03-30T12:17:25.839Z,20.83
2023-03-30T12:19:58.214Z,14.98
2023-03-30T12:22:33.583Z,12.73
2023-03-30T12:25:13.169Z,11.35
2023-03-30T12:27:54.061Z,11.75
2023-03-30T12:30:27.426Z,10.95
2023-03-30T12:33:11.235Z,11.98
2023-03-30T12:35:55.534Z,11.38
2023-03-30T12:38:25.709Z,6.68
2023-03-30T12:41:14.076Z,10.98
2023-03-30T12:44:03.857Z,6.32
2023-03-30T12:46:41.952Z,8.45
2023-03-30T12:49:24.276Z,8.52
2023-03-30T12:52:09.499Z,9.43
2023-03-30T12:54:56.239Z,7.88
2023-03-30T12:57:39.185Z,10.48
2023-03-30T13:00:28.524Z,7.43
2023-03-30T13:03:26.121Z,9.65
2023-03-30T13:05:58.591Z,12.75
2023-03-30T13:08:33.533Z,11.45
2023-03-30T13:11:10.393Z,12.90
2023-03-30T13:13:55.182Z,14.80
2023-03-30T13:17:00.781Z,10.80
2023-03-30T13:19:41.908Z,11.73
2023-03-30T13:22:31.178Z,9.05
2023-03-30T13:25:02.726Z,6.68
2023-03-30T13:27:33.926Z,9.23
2023-03-30T13:30:06.316Z,8.00
2023-03-30T13:32:49.523Z,7.47
2023-03-30T13:35:32.327Z,7.93
2023-03-30T13:38:17.682Z,5.93
2023-03-30T13:41:04.114Z,16.42
2023-03-30T13:43:47.927Z,7.30
2023-03-30T13:46:27.997Z,8.82
2023-03-30T13:49:13.625Z,9.68
2023-03-30T13:51:42.521Z,5.75
2023-03-30T13:54:17.168Z,7.63
2023-03-30T13:56:49.743Z,5.30
2023-03-30T13:59:20.658Z,5.95
2023-03-30T14:01:53.515Z,13.20
2023-03-30T14:04:22.029Z,5.32
2023-03-30T14:06:52.387Z,8.07
2023-03-30T14:09:24.042Z,7.47
2023-03-30T14:11:53.902Z,8.02
2023-03-30T14:14:27.847Z,3.58
2023-03-30T14:16:57.230Z,7.40
2023-03-30T14:19:28.298Z,6.13
2023-03-30T14:21:58.815Z,4.88
2023-03-30T14:24:32.830Z,7.65
2023-03-30T14:27:04.145Z,10.40
2023-03-30T14:29:32.276Z,5.93
2023-03-30T14:34:35.092Z,6.88
2023-03-30T14:37:06.291Z,7.78
2023-03-30T14:39:42.277Z,8.27
2023-03-30T14:42:16.541Z,9.13
2023-03-30T14:44:46.662Z,7.07
2023-03-30T14:47:15.728Z,5.82
2023-03-30T14:49:44.766Z,15.55
2023-03-30T14:52:18.733Z,8.05
2023-03-30T14:55:04.367Z,5.10
2023-03-30T14:57:37.876Z,6.82
2023-03-30T15:00:20.932Z,9.52
2023-03-30T15:02:52.659Z,7.90
2023-03-30T15:05:23.350Z,7.63
2023-03-30T15:07:52.962Z,5.38
2023-03-30T15:10:34.553Z,5.20
2023-03-30T15:13:03.976Z,6.30
2023-03-30T15:15:33.657Z,6.30
2023-03-30T15:18:04.028Z,11.32
2023-03-30T15:20:32.857Z,10.65
2023-03-30T15:23:01.635Z,5.60
2023-03-30T15:25:35.115Z,6.22
2023-03-30T15:28:06.718Z,11.30
2023-03-30T15:30:37.436Z,4.38
2023-03-30T15:33:07.452Z,4.18
2023-03-30T15:35:38.062Z,7.15
2023-03-30T15:38:16.881Z,4.82
2023-03-30T15:40:48.079Z,6.93
2023-03-30T15:43:21.065Z,7.55
2023-03-30T15:45:53.176Z,6.80
2023-03-30T15:48:24.474Z,5.43
2023-03-30T15:50:57.276Z,7.22
2023-03-30T15:53:41.084Z,2.85
2023-03-30T15:56:14.091Z,4.15
2023-03-30T15:58:43.050Z,6.05
2023-03-30T16:01:14.955Z,2.20
2023-03-30T16:03:51.927Z,3.38
2023-03-30T16:06:21.577Z,5.15
2023-03-30T16:08:49.407Z,3.03
2023-03-30T16:11:20.588Z,3.50
2023-03-30T16:13:49.766Z,4.30
2023-03-30T16:16:18.560Z,3.85
2023-03-30T16:18:46.775Z,6.90
2023-03-30T16:21:15.705Z,5.90
2023-03-30T16:23:44.209Z,3.38
2023-03-30T16:26:12.700Z,4.15
2023-03-30T16:28:42.873Z,3.67
2023-03-30T16:31:17.125Z,6.88
2023-03-30T16:33:45.045Z,3.05
2023-03-30T16:36:15.208Z,7.82
2023-03-30T16:38:43.137Z,2.42
2023-03-30T16:41:17.265Z,7.80
2023-03-30T16:43:46.768Z,7.88
2023-03-30T16:46:15.913Z,6.00
2023-03-30T16:48:43.976Z,1.15
2023-03-30T16:51:12.388Z,7.78
2023-03-30T16:53:40.943Z,6.95
2023-03-30T16:56:15.794Z,8.15
2023-03-30T16:58:43.689Z,6.30
2023-03-30T17:01:15.941Z,5.53
2023-03-30T17:03:43.913Z,2.75
2023-03-30T17:06:11.907Z,4.00
2023-03-30T17:08:42.453Z,6.88
2023-03-30T17:11:13.386Z,5.15
2023-03-30T17:13:42.296Z,2.38
2023-03-30T17:16:13.768Z,5.75
2023-03-30T17:18:41.691Z,7.97
2023-03-30T17:21:16.065Z,4.78
2023-03-30T17:23:46.359Z,2.90
2023-03-30T17:26:14.350Z,3.95
2023-03-30T17:28:42.965Z,5.40
2023-03-30T17:31:17.521Z,9.20
2023-03-30T17:33:46.002Z,5.82
2023-03-30T17:36:17.947Z,4.75
2023-03-30T17:38:46.046Z,5.15
2023-03-30T17:41:15.538Z,3.58
2023-03-30T17:43:44.346Z,5.78
2023-03-30T17:46:14.867Z,5.88
2023-03-30T17:48:42.866Z,3.08
2023-03-30T17:51:11.033Z,5.50
2023-03-30T17:53:39.103Z,2.90
2023-03-30T17:56:07.426Z,4.55
2023-03-30T17:58:36.644Z,6.60
2023-03-30T18:01:06.406Z,4.07
2023-03-30T18:03:39.183Z,6.20
2023-03-30T18:06:07.820Z,8.07
2023-03-30T18:08:36.008Z,7.28
2023-03-30T18:11:05.170Z,4.93
2023-03-30T18:13:33.314Z,4.32
2023-03-30T18:16:01.940Z,7.70
2023-03-30T18:18:31.579Z,5.95
2023-03-30T18:21:04.015Z,3.50
2023-03-30T18:23:34.524Z,3.42
2023-03-30T18:26:06.504Z,3.30
2023-03-30T18:28:36.791Z,5.40
2023-03-30T18:31:04.837Z,6.78
2023-03-30T18:33:34.200Z,8.35
2023-03-30T18:36:05.994Z,4.85
2023-03-30T18:38:34.406Z,7.50
2023-03-30T18:41:02.385Z,7.90
2023-03-30T18:43:30.348Z,10.63
2023-03-30T18:46:01.734Z,11.30
2023-03-30T18:48:30.566Z,6.97
2023-03-30T18:50:58.845Z,5.30
2023-03-30T18:53:29.208Z,7.10
2023-03-30T18:56:00.528Z,6.15
2023-03-30T18:58:30.873Z,4.90
2023-03-30T19:00:59.198Z,5.68
2023-03-30T19:03:28.498Z,8.40
2023-03-30T19:05:56.729Z,7.28
2023-03-30T19:08:26.274Z,7.63
2023-03-30T19:10:57.190Z,6.65
2023-03-30T19:13:26.960Z,9.15
2023-03-30T19:15:55.622Z,8.10
2023-03-30T19:18:23.715Z,5.75
2023-03-30T19:20:55.105Z,4.38
2023-03-30T19:23:23.047Z,6.47
2023-03-30T19:25:51.485Z,6.63
2023-03-30T19:28:21.167Z,8.45
2023-03-30T19:30:49.260Z,8.70
2023-03-30T19:33:19.796Z,8.27
2023-03-30T19:35:47.772Z,5.63
2023-03-30T19:38:16.185Z,7.35
2023-03-30T19:40:44.573Z,8.15
2023-03-30T19:43:12.453Z,8.95
2023-03-30T19:45:41.629Z,10.77
2023-03-30T19:48:09.566Z,8.65
2023-03-30T19:50:38.486Z,7.25
2023-03-30T19:53:06.566Z,8.00
2023-03-30T19:55:35.694Z,8.80
2023-03-30T19:58:03.598Z,8.90
2023-03-30T20:00:34.707Z,7.55
2023-03-30T20:03:04.096Z,6.85
2023-03-30T20:05:32.092Z,8.10
2023-03-30T20:08:05.710Z,7.55
2023-03-30T20:10:41.546Z,6.63
2023-03-30T20:13:09.440Z,7.07
2023-03-30T20:15:37.335Z,12.63
2023-03-30T20:18:06.856Z,11.05
2023-03-30T20:20:34.909Z,6.03
2023-03-30T20:23:02.776Z,8.50
2023-03-30T20:25:30.940Z,11.15
2023-03-30T20:27:58.861Z,8.25
2023-03-30T20:30:26.760Z,11.32
2023-03-30T20:33:06.837Z,9.02
2023-03-30T20:35:38.351Z,7.55
2023-03-30T20:38:08.124Z,5.82
2023-03-30T20:40:36.205Z,7.07
2023-03-30T20:43:09.833Z,9.68
2023-03-30T20:45:45.942Z,6.70
2023-03-30T20:48:26.185Z,7.35
2023-03-30T20:50:56.727Z,11.70
2023-03-30T20:53:24.909Z,15.65
2023-03-30T20:55:52.850Z,13.18
2023-03-30T20:58:22.196Z,7.55
2023-03-30T21:00:51.866Z,15.57
2023-03-30T21:03:20.319Z,7.38
2023-03-30T21:05:48.710Z,11.95
2023-03-30T21:08:17.946Z,6.35
2023-03-30T21:10:45.821Z,5.40
2023-03-30T21:13:14.992Z,9.15
2023-03-30T21:15:42.843Z,6.00
2023-03-30T21:18:10.787Z,8.68
2023-03-30T21:20:38.820Z,11.63
2023-03-30T21:23:06.924Z,8.02
2023-03-30T21:25:36.498Z,6.13
2023-03-30T21:28:04.721Z,7.43
2023-03-30T21:30:34.700Z,5.65
2023-03-30T21:33:04.444Z,8.05
2023-03-30T21:35:32.441Z,2.80
2023-03-30T21:38:02.093Z,8.63
2023-03-30T21:40:31.895Z,3.85
2023-03-30T21:43:01.069Z,4.38
2023-03-30T21:45:29.140Z,8.45
2023-03-30T21:47:57.001Z,9.13
2023-03-30T21:50:25.016Z,7.63
2023-03-30T21:52:58.256Z,10.60
2023-03-30T21:55:26.171Z,9.85
2023-03-30T21:57:54.051Z,5.97
2023-03-30T22:00:23.427Z,6.43
2023-03-30T22:02:52.167Z,12.07
2023-03-30T22:05:20.509Z,8.65
2023-03-30T22:07:48.473Z,10.70
2023-03-30T22:10:16.811Z,6.97
2023-03-30T22:12:44.845Z,6.28
2023-03-30T22:15:12.823Z,12.18
2023-03-30T22:17:42.736Z,6.97
2023-03-30T22:20:14.340Z,9.48
2023-03-30T22:22:42.234Z,7.63
2023-03-30T22:25:11.021Z,8.85
2023-03-30T22:27:39.053Z,19.52
2023-03-30T22:30:08.322Z,8.57
2023-03-30T22:32:36.208Z,5.97
2023-03-30T22:35:06.183Z,9.95
2023-03-30T22:37:34.021Z,9.43
2023-03-30T22:40:02.381Z,7.18
2023-03-30T22:42:30.310Z,8.25
2023-03-30T22:44:58.158Z,3.63
2023-03-30T22:47:26.082Z,6.70
2023-03-30T22:49:53.945Z,9.35
2023-03-30T22:52:23.289Z,6.38
2023-03-30T22:54:51.207Z,6.45
2023-03-30T22:57:21.390Z,11.68
2023-03-30T22:59:49.320Z,7.32
2023-03-30T23:02:17.257Z,8.48
2023-03-30T23:04:48.781Z,6.45
2023-03-30T23:07:17.435Z,7.57
2023-03-30T23:09:47.430Z,6.65
2023-03-30T23:12:15.461Z,8.43
2023-03-30T23:14:44.456Z,5.63
2023-03-30T23:17:12.346Z,18.50
2023-03-30T23:19:46.124Z,10.63
2023-03-30T23:22:13.945Z,5.40
2023-03-30T23:24:41.812Z,8.88
2023-03-30T23:27:11.114Z,7.50
2023-03-30T23:29:39.377Z,9.00
2023-03-30T23:32:07.375Z,7.25
2023-03-30T23:34:35.338Z,14.30
2023-03-30T23:37:03.649Z,9.20
2023-03-30T23:39:32.923Z,7.40
2023-03-30T23:42:01.425Z,8.30
2023-03-30T23:44:30.943Z,7.80
2023-03-30T23:46:59.196Z,6.70
2023-03-30T23:49:27.209Z,8.35
2023-03-30T23:51:55.386Z,14.95
2023-03-30T23:54:23.673Z,10.07
2023-03-30T23:56:57.840Z,14.07
2023-03-30T23:59:26.212Z,13.10
